Time;durP1;ratioP1;P1;durP2;ratioP2;P2;SDS_P1;SDS_P2;PMS_P1;PMS_P2;Temp;Humidity;BMP_temperature;BMP_pressure;BME280_temperature;BME280_humidity;BME280_pressure;Samples;Min_cycle;Max_cycle;Signal;HPM_P1;HPM_P2
2022/04/16 00:00:17;;;;;;;5.57;3.00;;;10.80;99.90;;;;;;5015639;28;20187;-35
2022/04/16 00:02:46;;;;;;;3.83;2.80;;;10.80;99.90;;;;;;5032859;28;20436;-34
2022/04/16 00:05:13;;;;;;;3.90;3.00;;;10.70;99.90;;;;;;5033036;28;20244;-35
2022/04/16 00:07:39;;;;;;;3.40;3.10;;;10.80;99.90;;;;;;5049487;28;20281;-35
2022/04/16 00:10:06;;;;;;;4.27;2.70;;;10.80;99.90;;;;;;5032794;28;20198;-35
2022/04/16 00:12:32;;;;;;;3.17;2.87;;;10.80;99.90;;;;;;5018083;28;20183;-35
2022/04/16 00:14:58;;;;;;;4.00;2.77;;;10.70;99.90;;;;;;5032801;28;20190;-36
2022/04/16 00:17:24;;;;;;;3.27;2.97;;;10.60;99.90;;;;;;5015885;28;20198;-36
2022/04/16 00:19:50;;;;;;;4.20;3.27;;;10.60;99.90;;;;;;5015992;28;20182;-34
2022/04/16 00:22:16;;;;;;;3.43;3.00;;;10.60;99.90;;;;;;5032653;28;20221;-35
2022/04/16 00:24:42;;;;;;;4.57;2.90;;;10.60;99.90;;;;;;5015603;28;20190;-35
2022/04/16 00:27:09;;;;;;;3.13;2.83;;;10.60;99.90;;;;;;5032002;28;20202;-35
2022/04/16 00:29:36;;;;;;;3.30;2.90;;;10.60;99.90;;;;;;5048578;28;20193;-35
2022/04/16 00:32:06;;;;;;;3.47;2.80;;;10.50;99.90;;;;;;5032175;28;20213;-35
2022/04/16 00:34:33;;;;;;;3.23;2.70;;;10.40;99.90;;;;;;5032348;28;20238;-34
2022/04/16 00:36:59;;;;;;;3.63;3.33;;;10.40;99.90;;;;;;5032526;28;20198;-35
2022/04/16 00:39:26;;;;;;;3.57;2.90;;;10.40;99.90;;;;;;5015067;28;20175;-35
2022/04/16 00:41:52;;;;;;;3.10;2.63;;;10.40;99.90;;;;;;4995775;28;20282;-36
2022/04/16 00:44:19;;;;;;;3.67;2.80;;;10.40;99.90;;;;;;5031785;28;20182;-34
2022/04/16 00:46:48;;;;;;;3.20;2.90;;;10.40;99.90;;;;;;5032083;28;20222;-34
2022/04/16 00:49:14;;;;;;;3.13;2.80;;;10.40;99.90;;;;;;5031956;28;20183;-34
2022/04/16 00:51:46;;;;;;;3.73;2.70;;;10.30;99.90;;;;;;5015980;28;20180;-35
2022/04/16 00:54:12;;;;;;;3.27;2.77;;;10.20;99.90;;;;;;4995507;28;20211;-35
2022/04/16 00:56:39;;;;;;;4.73;2.77;;;10.00;99.90;;;;;;5012193;28;20204;-34
2022/04/16 00:59:05;;;;;;;3.70;2.93;;;10.10;99.90;;;;;;5021931;28;20182;-34
2022/04/16 01:01:32;;;;;;;3.07;2.73;;;10.10;99.90;;;;;;5031797;28;20174;-36
2022/04/16 01:03:59;;;;;;;5.00;2.80;;;10.10;99.90;;;;;;5026364;28;20183;-34
2022/04/16 01:06:48;;;;;;;3.83;2.83;;;10.00;99.90;;;;;;4995646;28;20207;-35
2022/04/16 01:09:15;;;;;;;5.23;2.90;;;10.00;99.90;;;;;;5011940;28;20198;-35
2022/04/16 01:11:41;;;;;;;2.70;2.50;;;9.90;99.90;;;;;;4995663;28;20210;-36
2022/04/16 01:14:07;;;;;;;3.30;2.80;;;9.80;99.90;;;;;;5029773;28;20234;-35
2022/04/16 01:16:35;;;;;;;3.40;2.57;;;9.80;99.90;;;;;;5031512;28;20266;-34
2022/04/16 01:19:01;;;;;;;3.13;2.40;;;9.80;99.90;;;;;;5014346;28;20175;-34
2022/04/16 01:21:30;;;;;;;3.17;2.57;;;9.80;99.90;;;;;;5031112;28;20186;-34
2022/04/16 01:23:56;;;;;;;3.10;2.67;;;9.80;99.90;;;;;;5029158;28;20218;-35
2022/04/16 01:26:22;;;;;;;2.43;2.23;;;9.70;99.90;;;;;;5031404;28;20297;-35
2022/04/16 01:28:48;;;;;;;3.40;2.80;;;9.80;99.90;;;;;;5032594;28;20217;-34
2022/04/16 01:31:14;;;;;;;2.87;2.57;;;9.80;99.90;;;;;;5031337;28;20206;-35
2022/04/16 01:33:40;;;;;;;2.60;2.40;;;9.80;99.90;;;;;;5030796;28;20203;-34
2022/04/16 01:36:06;;;;;;;2.60;2.40;;;9.80;99.90;;;;;;5013423;28;20225;-34
2022/04/16 01:38:31;;;;;;;4.20;2.53;;;9.80;99.90;;;;;;5011440;28;20271;-34
2022/04/16 01:40:58;;;;;;;2.67;2.43;;;9.80;99.90;;;;;;5024450;28;20189;-35
2022/04/16 01:43:25;;;;;;;3.13;2.47;;;9.80;99.90;;;;;;5047965;28;20199;-34
2022/04/16 01:45:51;;;;;;;4.37;2.80;;;9.80;99.90;;;;;;5014685;28;20199;-35
2022/04/16 01:48:18;;;;;;;3.07;2.60;;;9.70;99.90;;;;;;5011430;28;20179;-35
2022/04/16 01:50:48;;;;;;;2.53;2.20;;;9.60;99.90;;;;;;5010658;28;20187;-35
2022/04/16 01:53:16;;;;;;;4.07;2.60;;;9.60;99.90;;;;;;5011210;28;20235;-35
2022/04/16 01:55:42;;;;;;;2.77;2.43;;;9.50;99.90;;;;;;5009515;28;20281;-35
2022/04/16 01:58:08;;;;;;;3.10;2.33;;;9.50;99.90;;;;;;5030881;28;20277;-35
2022/04/16 02:00:35;;;;;;;3.23;2.77;;;9.50;99.90;;;;;;5030457;28;20182;-36
2022/04/16 02:03:01;;;;;;;3.03;2.60;;;9.40;99.90;;;;;;5023542;28;20172;-37
2022/04/16 02:05:27;;;;;;;3.23;2.40;;;9.30;99.90;;;;;;5012179;28;20523;-37
2022/04/16 02:07:54;;;;;;;2.40;2.20;;;9.20;99.90;;;;;;4994831;28;20187;-35
2022/04/16 02:10:20;;;;;;;3.63;2.60;;;9.20;99.90;;;;;;4994321;28;20226;-35
2022/04/16 02:12:46;;;;;;;2.80;2.47;;;9.20;99.90;;;;;;4998356;28;20257;-35
2022/04/16 02:15:12;;;;;;;3.93;2.93;;;9.20;99.90;;;;;;4995215;28;20265;-35
2022/04/16 02:17:38;;;;;;;3.20;2.80;;;9.20;99.90;;;;;;4993858;28;20298;-34
2022/04/16 02:20:09;;;;;;;3.97;2.27;;;9.20;99.90;;;;;;5010570;28;20176;-35
2022/04/16 02:22:46;;;;;;;3.43;2.60;;;9.00;99.90;;;;;;5015552;28;20228;-34
2022/04/16 02:25:14;;;;;;;3.00;2.57;;;8.80;99.90;;;;;;5030272;28;20209;-38
2022/04/16 02:27:40;;;;;;;3.00;2.70;;;8.60;99.90;;;;;;5030633;28;20202;-35
2022/04/16 02:30:12;;;;;;;2.73;2.53;;;8.60;99.90;;;;;;5029880;28;20189;-35
2022/04/16 02:32:46;;;;;;;4.53;2.50;;;8.60;99.90;;;;;;5026348;28;20181;-34
2022/04/16 02:35:14;;;;;;;3.40;2.93;;;8.50;99.90;;;;;;4994276;28;20193;-35
2022/04/16 02:37:40;;;;;;;3.00;2.70;;;8.40;99.90;;;;;;4994352;28;20249;-35
2022/04/16 02:40:06;;;;;;;4.47;2.60;;;8.30;99.90;;;;;;5010448;28;20184;-35
2022/04/16 02:42:36;;;;;;;4.17;2.70;;;8.30;99.90;;;;;;4996118;28;20213;-35
2022/04/16 02:47:49;;;;;;;3.20;2.70;;;8.20;99.90;;;;;;5010429;28;20229;-34
2022/04/16 02:50:15;;;;;;;3.57;2.47;;;8.10;99.90;;;;;;5010344;28;20195;-34
2022/04/16 02:52:41;;;;;;;3.83;3.10;;;8.10;99.90;;;;;;5029039;28;20249;-35
2022/04/16 02:55:07;;;;;;;2.90;2.60;;;8.10;99.90;;;;;;5030050;28;20188;-34
2022/04/16 02:57:33;;;;;;;2.97;2.60;;;8.10;99.90;;;;;;5030425;28;20199;-34
2022/04/16 02:59:59;;;;;;;3.37;2.83;;;8.20;99.90;;;;;;5029309;28;20216;-35
2022/04/16 03:02:25;;;;;;;3.20;2.90;;;8.20;99.90;;;;;;5031376;28;20213;-35
2022/04/16 03:04:51;;;;;;;2.93;2.67;;;8.30;99.90;;;;;;5046743;28;20182;-34
2022/04/16 03:07:17;;;;;;;3.10;2.80;;;8.40;99.90;;;;;;5027638;28;20268;-34
2022/04/16 03:09:43;;;;;;;2.87;2.50;;;8.50;99.90;;;;;;4997660;28;20599;-35
2022/04/16 03:12:10;;;;;;;3.43;2.67;;;8.60;99.90;;;;;;5046564;28;20190;-35
2022/04/16 03:17:32;;;;;;;2.97;2.50;;;8.70;99.90;;;;;;5033725;28;20198;-35
2022/04/16 03:20:07;;;;;;;2.93;2.60;;;8.70;99.90;;;;;;5016292;28;20284;-34
2022/04/16 03:22:34;;;;;;;3.80;2.80;;;8.70;99.90;;;;;;5017645;28;20245;-34
2022/04/16 03:25:10;;;;;;;3.10;2.77;;;8.70;99.90;;;;;;5034660;28;20182;-35
2022/04/16 03:27:39;;;;;;;3.17;2.87;;;8.70;99.90;;;;;;5034444;28;20269;-34
2022/04/16 03:30:06;;;;;;;3.00;2.70;;;8.70;99.90;;;;;;5046709;28;20206;-34
2022/04/16 03:32:32;;;;;;;4.03;3.20;;;8.70;99.90;;;;;;5013545;28;20189;-35
2022/04/16 03:34:58;;;;;;;3.63;2.63;;;8.60;99.90;;;;;;5013928;28;20214;-36
2022/04/16 03:37:24;;;;;;;3.53;3.20;;;8.50;99.90;;;;;;5014251;28;20210;-35
2022/04/16 03:39:53;;;;;;;3.87;3.03;;;8.40;99.90;;;;;;4996345;28;20257;-34
2022/04/16 03:42:19;;;;;;;3.27;2.90;;;8.30;99.90;;;;;;5016899;28;20201;-34
2022/04/16 03:44:45;;;;;;;4.80;2.60;;;8.30;99.90;;;;;;5016545;28;20182;-34
2022/04/16 03:47:11;;;;;;;3.93;2.80;;;8.30;99.90;;;;;;5016303;28;20227;-34
2022/04/16 03:49:37;;;;;;;3.63;2.80;;;8.30;99.90;;;;;;4996799;28;20186;-34
2022/04/16 03:52:04;;;;;;;3.07;2.70;;;8.40;99.90;;;;;;4997247;28;20305;-35
2022/04/16 04:00:03;;;;;;;2.70;2.50;;;8.50;99.90;;;;;;5030461;28;20285;-39
2022/04/16 04:02:39;;;;;;;2.93;2.57;;;8.40;99.90;;;;;;5034328;28;20721;-34
2022/04/16 04:05:06;;;;;;;2.63;2.43;;;8.30;99.90;;;;;;5033111;28;20209;-34
2022/04/16 04:07:32;;;;;;;3.97;2.57;;;8.30;99.90;;;;;;5032750;28;20193;-35
2022/04/16 04:09:58;;;;;;;3.13;2.60;;;8.30;99.90;;;;;;4996494;28;20241;-34
2022/04/16 04:12:25;;;;;;;3.43;2.73;;;8.20;99.90;;;;;;5016927;28;20192;-34
2022/04/16 04:14:51;;;;;;;2.80;2.50;;;8.20;99.90;;;;;;5032767;28;20297;-34
2022/04/16 04:17:17;;;;;;;3.67;2.90;;;8.10;99.90;;;;;;5032336;28;20243;-34
2022/04/16 04:19:44;;;;;;;2.90;2.60;;;8.00;99.90;;;;;;5016091;28;20185;-34
2022/04/16 04:22:14;;;;;;;3.10;2.80;;;7.90;99.90;;;;;;5032542;28;20191;-34
2022/04/16 04:24:41;;;;;;;3.13;2.83;;;7.80;99.90;;;;;;5015576;28;20184;-34
2022/04/16 04:27:07;;;;;;;3.43;2.90;;;7.70;99.90;;;;;;5005362;28;20192;-34
2022/04/16 04:29:34;;;;;;;2.77;2.57;;;7.70;99.90;;;;;;5009868;28;20199;-34
2022/04/16 04:32:00;;;;;;;2.97;2.67;;;7.70;99.90;;;;;;5032969;28;20188;-34
2022/04/16 04:34:26;;;;;;;3.03;2.60;;;7.50;99.90;;;;;;5033646;28;20215;-34
2022/04/16 04:36:52;;;;;;;3.27;2.70;;;7.50;99.90;;;;;;5024356;28;20245;-34
2022/04/16 04:39:18;;;;;;;3.33;2.53;;;7.50;99.90;;;;;;5011936;28;20180;-35
2022/04/16 04:41:46;;;;;;;4.20;3.00;;;7.50;99.90;;;;;;5005422;28;20196;-34
2022/04/16 04:44:15;;;;;;;2.80;2.60;;;7.40;99.90;;;;;;5032575;28;20214;-34
2022/04/16 04:46:42;;;;;;;2.83;2.60;;;7.40;99.90;;;;;;5032429;28;20214;-34
2022/04/16 04:49:08;;;;;;;2.87;2.60;;;7.50;99.90;;;;;;5015424;28;20176;-35
2022/04/16 04:51:35;;;;;;;3.20;2.90;;;7.60;99.90;;;;;;5015139;28;20246;-35
2022/04/16 04:54:02;;;;;;;3.47;2.67;;;7.70;99.90;;;;;;5015271;28;20216;-34
2022/04/16 04:56:29;;;;;;;2.90;2.60;;;7.90;99.90;;;;;;5029609;28;20196;-34
2022/04/16 04:58:55;;;;;;;3.47;2.60;;;8.00;99.90;;;;;;5020588;28;20270;-34
2022/04/16 05:01:21;;;;;;;3.30;2.90;;;8.00;99.90;;;;;;5031993;28;20657;-34
2022/04/16 05:03:47;;;;;;;3.23;2.90;;;8.10;99.90;;;;;;5032035;28;20316;-35
2022/04/16 05:06:13;;;;;;;2.90;2.57;;;8.10;99.90;;;;;;5015168;28;20215;-34
2022/04/16 05:08:39;;;;;;;3.27;2.90;;;8.20;99.90;;;;;;4995548;28;20201;-34
2022/04/16 05:11:04;;;;;;;3.73;2.97;;;8.30;99.90;;;;;;4995728;28;20190;-34
2022/04/16 05:13:30;;;;;;;3.33;3.03;;;8.40;99.90;;;;;;5024773;28;20732;-35
2022/04/16 05:15:56;;;;;;;3.53;3.23;;;8.50;99.90;;;;;;5014987;28;20198;-34
2022/04/16 05:18:22;;;;;;;3.37;3.07;;;8.50;99.90;;;;;;5023706;28;20182;-34
2022/04/16 05:20:48;;;;;;;3.90;3.43;;;8.50;99.90;;;;;;5031073;28;20193;-35
2022/04/16 05:23:13;;;;;;;3.93;3.57;;;8.50;99.90;;;;;;5031223;28;20276;-34
2022/04/16 05:25:39;;;;;;;4.80;3.33;;;8.40;99.90;;;;;;5020706;28;20183;-34
2022/04/16 05:28:05;;;;;;;4.00;3.43;;;8.50;99.90;;;;;;5029758;28;20272;-34
2022/04/16 05:30:38;;;;;;;6.50;3.90;;;8.50;99.90;;;;;;5031278;28;20243;-34
2022/04/16 05:33:16;;;;;;;4.67;3.83;;;8.50;99.90;;;;;;5014853;28;20188;-34
2022/04/16 05:35:45;;;;;;;4.40;3.30;;;8.50;99.90;;;;;;5022631;28;20185;-34
2022/04/16 05:38:11;;;;;;;3.97;3.57;;;8.60;99.90;;;;;;5030628;28;20241;-35
2022/04/16 05:40:36;;;;;;;3.50;3.13;;;8.50;99.90;;;;;;5031146;28;20583;-34
2022/04/16 05:43:02;;;;;;;4.57;3.40;;;8.50;99.90;;;;;;5030911;28;20213;-34
2022/04/16 05:45:28;;;;;;;5.40;3.33;;;8.50;99.90;;;;;;5030591;28;20174;-34
2022/04/16 05:47:54;;;;;;;3.80;3.40;;;8.60;99.90;;;;;;5030802;28;20194;-34
2022/04/16 05:50:20;;;;;;;4.90;3.73;;;8.70;99.90;;;;;;5030922;28;20178;-34
2022/04/16 05:52:46;;;;;;;4.83;3.67;;;8.80;99.90;;;;;;5030897;28;20170;-34
2022/04/16 05:55:13;;;;;;;4.20;3.40;;;8.80;99.90;;;;;;5030290;28;20193;-34
2022/04/16 05:57:39;;;;;;;4.03;3.50;;;8.90;99.90;;;;;;5030952;28;20202;-34
2022/04/16 06:00:06;;;;;;;4.70;3.40;;;9.00;99.90;;;;;;5030220;28;20570;-34
2022/04/16 06:02:40;;;;;;;4.60;4.03;;;9.00;99.90;;;;;;5028184;28;20189;-36
2022/04/16 06:05:06;;;;;;;4.33;2.90;;;9.10;99.90;;;;;;5001765;28;20195;-34
2022/04/16 06:07:32;;;;;;;4.07;3.63;;;9.20;99.90;;;;;;5011446;28;20222;-36
2022/04/16 06:09:58;;;;;;;5.33;4.10;;;9.30;99.90;;;;;;5010930;28;20203;-34
2022/04/16 06:12:26;;;;;;;4.33;3.30;;;9.40;99.90;;;;;;5013505;28;20171;-34
2022/04/16 06:14:52;;;;;;;3.40;3.10;;;9.40;99.90;;;;;;5011837;28;20273;-35
2022/04/16 06:17:19;;;;;;;3.43;2.90;;;9.50;99.90;;;;;;5010558;28;20297;-34
2022/04/16 06:19:44;;;;;;;4.00;2.97;;;9.60;99.90;;;;;;5010873;28;20179;-34
2022/04/16 06:22:11;;;;;;;3.57;2.83;;;9.70;99.90;;;;;;5010763;28;20182;-34
2022/04/16 06:24:41;;;;;;;3.90;3.23;;;9.80;99.90;;;;;;5010936;28;20194;-34
2022/04/16 06:27:07;;;;;;;3.67;3.17;;;9.90;99.90;;;;;;5010722;28;20195;-36
2022/04/16 06:29:33;;;;;;;3.57;2.70;;;10.00;99.90;;;;;;5023642;28;20196;-34
2022/04/16 06:31:59;;;;;;;4.10;3.70;;;10.00;99.90;;;;;;5030164;28;20285;-34
2022/04/16 06:34:27;;;;;;;4.10;2.93;;;10.10;99.90;;;;;;5030348;28;20215;-34
2022/04/16 06:36:55;;;;;;;3.40;3.10;;;10.20;99.90;;;;;;5030402;28;20198;-34
2022/04/16 06:39:22;;;;;;;4.47;3.80;;;10.30;99.90;;;;;;5030198;28;20244;-34
2022/04/16 06:41:48;;;;;;;3.50;3.20;;;10.30;99.90;;;;;;5025578;28;20175;-35
2022/04/16 06:44:18;;;;;;;4.43;3.73;;;10.30;99.90;;;;;;5013794;28;20194;-34
2022/04/16 06:46:46;;;;;;;5.37;3.60;;;10.40;99.90;;;;;;5031245;28;20293;-34
2022/04/16 06:49:12;;;;;;;4.57;3.53;;;10.50;99.90;;;;;;5030314;28;20183;-34
2022/04/16 06:51:38;;;;;;;4.03;3.33;;;10.50;99.90;;;;;;5030664;28;20217;-34
2022/04/16 06:54:03;;;;;;;5.13;4.07;;;10.60;99.90;;;;;;5014681;28;20240;-34
2022/04/16 06:56:29;;;;;;;5.93;4.30;;;10.70;99.90;;;;;;5014359;28;20703;-34
2022/04/16 06:58:55;;;;;;;4.50;4.03;;;10.70;99.90;;;;;;5022724;28;20197;-34
2022/04/16 07:01:21;;;;;;;4.47;3.90;;;10.70;99.90;;;;;;5033740;28;20189;-36
2022/04/16 07:03:46;;;;;;;4.57;4.03;;;10.70;99.90;;;;;;5033745;28;20265;-34
2022/04/16 07:06:12;;;;;;;5.27;3.80;;;10.70;99.90;;;;;;5035464;28;20220;-34
2022/04/16 07:08:38;;;;;;;4.13;3.53;;;10.80;99.90;;;;;;5017438;28;20179;-34
2022/04/16 07:11:04;;;;;;;5.77;4.90;;;10.90;99.90;;;;;;5018243;28;20241;-35
2022/04/16 07:13:30;;;;;;;5.03;4.10;;;10.90;99.90;;;;;;5035272;28;20210;-36
2022/04/16 07:15:56;;;;;;;4.37;3.90;;;10.90;99.90;;;;;;5033957;28;20618;-36
2022/04/16 07:18:23;;;;;;;5.03;4.53;;;11.00;99.90;;;;;;5033701;28;20178;-35
2022/04/16 07:20:48;;;;;;;6.47;4.53;;;11.00;99.90;;;;;;5050272;28;20545;-35
2022/04/16 07:23:15;;;;;;;5.43;4.07;;;11.00;99.90;;;;;;5033550;28;20352;-36
2022/04/16 07:25:41;;;;;;;5.03;4.50;;;11.10;99.90;;;;;;5016706;28;20181;-35
2022/04/16 07:28:06;;;;;;;7.10;4.23;;;11.10;99.90;;;;;;5034112;28;20174;-35
2022/04/16 07:30:32;;;;;;;5.93;4.90;;;11.20;99.90;;;;;;5027908;28;20217;-36
2022/04/16 07:32:58;;;;;;;4.87;4.07;;;11.30;99.90;;;;;;4997141;28;20278;-35
2022/04/16 07:35:26;;;;;;;4.73;4.00;;;11.40;99.90;;;;;;4996863;28;20175;-35
2022/04/16 07:37:57;;;;;;;4.93;4.20;;;11.50;99.90;;;;;;5013221;28;20290;-35
2022/04/16 07:40:24;;;;;;;5.83;4.50;;;11.60;99.90;;;;;;5014535;28;20293;-35
2022/04/16 07:42:50;;;;;;;5.20;4.40;;;11.70;99.90;;;;;;5032454;28;20193;-35
2022/04/16 07:45:16;;;;;;;5.70;4.50;;;11.70;99.90;;;;;;5032721;28;20175;-35
2022/04/16 07:47:42;;;;;;;5.63;4.10;;;11.70;99.90;;;;;;5032015;28;20227;-35
2022/04/16 07:50:09;;;;;;;5.00;4.20;;;11.80;99.90;;;;;;5030406;28;20183;-35
2022/04/16 07:52:36;;;;;;;4.70;4.20;;;11.80;99.90;;;;;;5032069;28;20229;-35
2022/04/16 07:55:06;;;;;;;5.03;4.20;;;11.70;99.90;;;;;;5013607;28;20301;-35
2022/04/16 07:57:32;;;;;;;5.20;4.50;;;11.80;99.90;;;;;;5022942;28;20203;-35
2022/04/16 07:59:58;;;;;;;4.83;4.33;;;11.90;99.90;;;;;;5013832;28;20191;-34
2022/04/16 08:02:26;;;;;;;4.27;3.87;;;12.10;99.90;;;;;;5030550;28;20218;-35
2022/04/16 08:04:54;;;;;;;4.27;3.80;;;12.30;99.90;;;;;;5015224;28;20184;-35
2022/04/16 08:07:23;;;;;;;4.17;3.77;;;12.50;99.90;;;;;;5012685;28;20312;-36
2022/04/16 08:09:53;;;;;;;3.90;3.50;;;12.80;99.90;;;;;;4998094;28;20202;-35
2022/04/16 08:12:21;;;;;;;3.93;3.53;;;13.10;99.90;;;;;;5014392;28;20252;-36
2022/04/16 08:14:48;;;;;;;4.03;3.63;;;13.40;99.90;;;;;;5032750;28;20209;-35
2022/04/16 08:17:16;;;;;;;4.63;3.53;;;13.20;99.90;;;;;;5014928;28;20194;-35
2022/04/16 08:19:46;;;;;;;4.10;3.63;;;13.20;99.90;;;;;;5005201;28;20513;-35
2022/04/16 08:22:22;;;;;;;4.20;3.47;;;13.00;99.90;;;;;;5030908;28;20176;-37
2022/04/16 08:25:43;;;;;;;5.60;3.67;;;12.80;99.90;;;;;;5029684;28;20192;-35
2022/04/16 08:27:42;;;;;;;5.17;4.13;;;12.90;99.90;;;;;;5028983;28;20243;-37
2022/04/16 08:30:12;;;;;;;4.60;3.80;;;12.80;99.90;;;;;;5028975;28;20191;-35
2022/04/16 08:32:42;;;;;;;4.30;3.77;;;12.50;99.90;;;;;;5030953;28;20177;-35
2022/04/16 08:35:10;;;;;;;4.70;3.93;;;12.50;99.90;;;;;;5014755;28;20207;-35
2022/04/16 08:37:36;;;;;;;5.07;4.50;;;12.60;99.90;;;;;;5031224;28;20275;-36
2022/04/16 08:40:05;;;;;;;5.43;4.67;;;12.50;99.90;;;;;;5030222;28;20281;-35
2022/04/16 08:42:36;;;;;;;5.07;4.57;;;12.50;99.90;;;;;;5031119;28;20193;-36
2022/04/16 08:45:06;;;;;;;5.93;4.80;;;12.50;99.90;;;;;;5013229;28;20204;-35
2022/04/16 08:47:32;;;;;;;5.60;4.33;;;12.60;99.90;;;;;;5026850;28;20216;-36
2022/04/16 08:50:05;;;;;;;5.63;4.40;;;12.70;99.90;;;;;;5030071;28;20304;-36
2022/04/16 08:52:33;;;;;;;5.90;4.67;;;12.80;99.90;;;;;;5030006;28;20185;-35
2022/04/16 08:55:01;;;;;;;7.10;4.73;;;12.80;99.90;;;;;;5030372;28;20219;-35
2022/04/16 08:57:27;;;;;;;5.50;4.53;;;12.70;99.90;;;;;;5029890;28;20195;-34
2022/04/16 08:59:54;;;;;;;5.87;4.87;;;12.70;99.90;;;;;;5030243;28;20206;-36
2022/04/16 09:02:28;;;;;;;5.20;4.63;;;12.80;99.90;;;;;;5030443;28;20275;-34
2022/04/16 09:05:20;;;;;;;5.90;4.73;;;12.90;99.90;;;;;;5030592;28;20272;-34
2022/04/16 09:07:53;;;;;;;5.47;4.50;;;12.80;99.90;;;;;;5022780;28;20212;-36
2022/04/16 09:10:21;;;;;;;5.60;5.10;;;12.90;99.90;;;;;;5030819;28;20190;-39
2022/04/16 09:12:53;;;;;;;5.60;4.83;;;12.90;99.90;;;;;;5030347;28;20197;-35
2022/04/16 09:15:21;;;;;;;5.53;4.90;;;13.10;99.90;;;;;;5030159;28;20572;-35
2022/04/16 09:18:03;;;;;;;6.67;5.03;;;13.20;99.90;;;;;;5030584;28;20197;-34
2022/04/16 09:20:38;;;;;;;5.23;4.50;;;13.30;99.90;;;;;;5011140;28;20188;-35
2022/04/16 09:23:21;;;;;;;5.47;4.73;;;13.40;99.90;;;;;;5030190;28;20187;-35
2022/04/16 09:25:50;;;;;;;5.10;4.43;;;13.40;99.90;;;;;;5025916;28;20197;-36
2022/04/16 09:28:19;;;;;;;5.60;5.00;;;13.60;99.90;;;;;;5030062;28;20212;-34
2022/04/16 09:30:50;;;;;;;5.97;5.33;;;13.80;99.90;;;;;;5029453;28;20261;-36
2022/04/16 09:33:16;;;;;;;5.80;4.70;;;13.90;99.90;;;;;;5029827;28;20221;-36
2022/04/16 09:35:41;;;;;;;5.33;4.67;;;14.00;99.90;;;;;;5028711;28;20178;-38
2022/04/16 09:38:12;;;;;;;5.17;4.67;;;14.40;99.90;;;;;;5021256;28;20186;-35
2022/04/16 09:40:38;;;;;;;5.10;4.60;;;14.70;99.90;;;;;;5027795;28;20186;-38
2022/04/16 09:43:06;;;;;;;6.37;4.77;;;14.90;99.90;;;;;;5009916;28;20178;-35
2022/04/16 09:45:37;;;;;;;4.87;4.30;;;14.90;99.90;;;;;;5028073;28;20175;-38
2022/04/16 09:48:06;;;;;;;4.50;4.00;;;15.00;99.90;;;;;;5025947;28;20188;-36
2022/04/16 09:50:32;;;;;;;4.50;3.80;;;15.00;99.90;;;;;;5012506;28;20270;-35
2022/04/16 09:53:02;;;;;;;4.23;3.83;;;14.90;99.90;;;;;;5023279;28;20175;-34
2022/04/16 09:55:28;;;;;;;5.47;4.03;;;14.90;99.90;;;;;;5025783;28;20282;-36
2022/04/16 09:58:03;;;;;;;4.13;3.73;;;15.10;99.90;;;;;;5025731;28;20166;-36
2022/04/16 10:00:34;;;;;;;4.77;3.53;;;15.30;99.90;;;;;;5023248;28;20173;-35
2022/04/16 10:03:00;;;;;;;4.90;3.83;;;15.30;99.90;;;;;;5007488;28;20181;-38
2022/04/16 10:05:27;;;;;;;5.67;3.70;;;15.00;99.90;;;;;;5029031;28;20187;-36
2022/04/16 10:07:53;;;;;;;3.80;3.50;;;15.00;99.90;;;;;;5016892;28;20194;-35
2022/04/16 10:10:46;;;;;;;4.50;3.63;;;15.00;99.90;;;;;;5043387;28;20206;-35
2022/04/16 10:13:10;;;;;;;4.27;3.13;;;14.90;99.90;;;;;;5032573;28;20214;-35
2022/04/16 10:15:55;;;;;;;3.40;3.00;;;14.80;99.90;;;;;;5028761;28;20186;-35
2022/04/16 10:18:21;;;;;;;3.27;2.70;;;14.60;99.90;;;;;;5036497;28;20179;-37
2022/04/16 10:20:57;;;;;;;3.50;3.20;;;14.50;99.90;;;;;;5028405;28;20265;-35
2022/04/16 10:23:36;;;;;;;3.90;3.47;;;14.40;99.90;;;;;;5009813;28;20210;-35
2022/04/16 10:26:09;;;;;;;4.03;3.20;;;14.20;99.90;;;;;;5023898;28;20202;-35
2022/04/16 10:28:52;;;;;;;3.27;2.97;;;14.10;99.90;;;;;;5018010;28;20190;-35
2022/04/16 10:31:23;;;;;;;3.23;2.90;;;13.90;99.90;;;;;;5021628;28;20229;-35
2022/04/16 10:34:05;;;;;;;4.00;2.97;;;13.90;99.90;;;;;;5039289;28;20210;-36
2022/04/16 10:36:51;;;;;;;3.57;3.27;;;13.80;99.90;;;;;;5025433;28;20214;-35
2022/04/16 10:39:19;;;;;;;3.23;2.93;;;13.80;99.90;;;;;;5038288;28;20532;-35
2022/04/16 10:42:00;;;;;;;5.50;3.40;;;13.80;99.90;;;;;;5033044;28;20277;-35
2022/04/16 10:44:28;;;;;;;6.50;4.77;;;13.80;99.90;;;;;;5030278;28;20195;-37
2022/04/16 10:46:55;;;;;;;6.87;5.07;;;13.90;99.90;;;;;;5021720;28;20215;-37
2022/04/16 10:49:23;;;;;;;5.53;4.27;;;13.50;99.90;;;;;;5049463;28;20188;-37
2022/04/16 10:51:50;;;;;;;4.40;3.33;;;13.50;99.90;;;;;;5049536;28;20184;-39
2022/04/16 10:54:32;;;;;;;4.23;3.83;;;13.60;99.90;;;;;;5028033;28;20581;-37
2022/04/16 10:56:59;;;;;;;6.13;4.10;;;13.60;99.90;;;;;;5031942;28;20270;-36
2022/04/16 10:59:42;;;;;;;6.87;4.90;;;13.30;99.90;;;;;;5024569;28;20189;-37
2022/04/16 11:02:26;;;;;;;6.03;4.83;;;13.40;99.90;;;;;;5009931;28;20253;-37
2022/04/16 11:05:02;;;;;;;6.03;5.23;;;13.20;99.90;;;;;;5026558;28;20197;-38
2022/04/16 11:07:31;;;;;;;6.43;5.00;;;13.10;99.90;;;;;;5030464;28;20206;-38
2022/04/16 11:09:57;;;;;;;8.00;6.30;;;12.90;99.90;;;;;;5029003;28;20183;-36
2022/04/16 11:12:24;;;;;;;7.57;5.90;;;12.70;99.90;;;;;;5026136;28;20190;-37
2022/04/16 11:14:51;;;;;;;5.17;3.90;;;12.60;99.90;;;;;;5029437;28;20194;-36
2022/04/16 11:17:17;;;;;;;4.77;4.20;;;12.80;99.90;;;;;;5029013;28;20231;-38
2022/04/16 11:19:57;;;;;;;4.00;3.60;;;12.90;99.90;;;;;;5012470;28;20206;-37
2022/04/16 11:22:23;;;;;;;4.50;4.10;;;13.10;99.90;;;;;;5026502;28;20264;-36
2022/04/16 11:24:50;;;;;;;5.77;5.17;;;13.10;99.90;;;;;;5029560;28;20269;-37
2022/04/16 11:35:57;;;;;;;3.60;3.30;;;13.60;99.90;;;;;;5028901;28;20214;-37
2022/04/16 11:38:31;;;;;;;3.60;3.30;;;14.10;99.90;;;;;;5031847;28;20615;-37
2022/04/16 11:41:01;;;;;;;4.00;3.20;;;14.40;99.90;;;;;;5029121;28;20177;-38
2022/04/16 11:43:28;;;;;;;3.17;2.80;;;14.80;99.90;;;;;;5032702;28;20199;-37
2022/04/16 11:45:57;;;;;;;3.20;2.90;;;15.10;99.90;;;;;;5031246;28;20298;-36
2022/04/16 11:48:24;;;;;;;3.57;3.27;;;14.80;99.90;;;;;;5031082;28;20201;-37
2022/04/16 11:50:51;;;;;;;3.50;2.93;;;14.60;99.90;;;;;;5026702;28;20187;-34
2022/04/16 11:53:17;;;;;;;3.93;2.70;;;14.50;99.90;;;;;;5014783;28;20199;-35
2022/04/16 11:55:52;;;;;;;3.10;2.80;;;14.60;99.90;;;;;;5014802;28;20265;-37
2022/04/16 11:58:26;;;;;;;3.00;2.70;;;14.70;99.90;;;;;;4999871;28;20186;-37
2022/04/16 12:00:55;;;;;;;3.20;2.87;;;14.80;99.90;;;;;;5029955;28;20183;-42
2022/04/16 12:03:34;;;;;;;4.83;3.33;;;14.90;99.90;;;;;;5033679;28;20189;-40
2022/04/16 12:06:00;;;;;;;4.53;3.03;;;15.00;99.90;;;;;;5034316;28;20216;-38
2022/04/16 12:08:30;;;;;;;49.80;15.07;;;15.20;99.90;;;;;;5034829;28;20206;-39
2022/04/16 12:10:59;;;;;;;6.43;4.40;;;15.00;99.90;;;;;;5021007;28;20261;-41
2022/04/16 12:13:37;;;;;;;4.20;3.80;;;15.00;99.90;;;;;;5033959;28;20195;-40
2022/04/16 12:16:06;;;;;;;4.50;3.90;;;14.90;99.90;;;;;;5034034;28;20281;-37
2022/04/16 12:18:37;;;;;;;3.97;3.57;;;14.70;99.90;;;;;;5033976;28;20175;-35
2022/04/16 12:21:07;;;;;;;4.67;3.93;;;14.70;99.90;;;;;;5050232;28;20179;-43
2022/04/16 12:23:38;;;;;;;4.27;3.80;;;14.50;99.90;;;;;;5017402;28;20189;-39
2022/04/16 12:26:10;;;;;;;5.00;4.40;;;14.40;99.90;;;;;;5033996;28;20229;-38
2022/04/16 12:28:43;;;;;;;4.27;3.87;;;14.40;99.90;;;;;;5031903;28;20194;-37
2022/04/16 12:31:10;;;;;;;5.33;4.10;;;14.50;99.90;;;;;;5030188;28;20254;-39
2022/04/16 12:33:36;;;;;;;4.03;3.53;;;14.60;99.90;;;;;;5033246;28;20285;-39
2022/04/16 12:36:02;;;;;;;4.73;3.90;;;14.80;99.90;;;;;;5016031;28;20202;-41
2022/04/16 12:38:28;;;;;;;4.50;3.97;;;14.90;99.90;;;;;;5029040;28;20229;-44
2022/04/16 12:41:10;;;;;;;4.90;3.70;;;15.00;99.90;;;;;;5027421;28;20202;-37
2022/04/16 12:43:38;;;;;;;3.80;3.40;;;15.00;99.90;;;;;;5033557;28;20242;-37
2022/04/16 12:46:04;;;;;;;5.00;3.23;;;15.10;99.90;;;;;;5032684;28;20237;-38
2022/04/16 12:48:54;;;;;;;3.50;3.20;;;15.20;99.90;;;;;;5032463;28;20175;-37
2022/04/16 12:51:20;;;;;;;3.23;2.93;;;15.10;99.90;;;;;;5033422;28;20663;-38
2022/04/16 12:53:46;;;;;;;3.43;3.13;;;15.10;99.90;;;;;;5024504;28;20329;-44
2022/04/16 12:56:12;;;;;;;4.37;3.40;;;15.30;99.90;;;;;;5060023;23;20218;-41
2022/04/16 12:58:37;;;;;;;5.17;3.50;;;15.50;99.90;;;;;;5052361;28;20257;-42
2022/04/16 13:01:03;;;;;;;3.27;2.80;;;15.80;99.90;;;;;;5052175;28;20186;-39
2022/04/16 13:03:29;;;;;;;3.47;3.10;;;16.00;99.90;;;;;;5052974;28;20230;-39
2022/04/16 13:05:55;;;;;;;3.03;2.73;;;16.00;99.90;;;;;;5035050;28;20202;-40
2022/04/16 13:08:21;;;;;;;2.80;2.53;;;16.00;99.90;;;;;;5023653;28;20190;-39
2022/04/16 13:10:46;;;;;;;3.20;2.83;;;16.00;99.90;;;;;;5036570;28;20190;-39
2022/04/16 13:13:12;;;;;;;3.33;3.03;;;16.10;99.90;;;;;;5028938;28;20185;-41
2022/04/16 13:15:38;;;;;;;4.13;3.73;;;16.30;99.90;;;;;;5052440;28;20202;-37